Time;durP1;ratioP1;P1;durP2;ratioP2;P2;SDS_P1;SDS_P2;PMS_P1;PMS_P2;Temp;Humidity;BMP_temperature;BMP_pressure;BME280_temperature;BME280_humidity;BME280_pressure;Samples;Min_cycle;Max_cycle;Signal;HPM_P1;HPM_P2
2021/10/05 00:01:58;;;;;;;21.23;14.00;;;27.40;95.00;;;;;;1940142;74;21067;-86
2021/10/05 00:04:30;;;;;;;23.80;14.30;;;27.40;94.90;;;;;;1940305;72;21059;-85
2021/10/05 00:07:01;;;;;;;20.35;13.98;;;27.50;94.70;;;;;;1940155;74;21059;-85
2021/10/05 00:09:32;;;;;;;21.42;14.13;;;27.50;94.80;;;;;;1939880;74;21539;-86
2021/10/05 00:12:04;;;;;;;20.40;14.10;;;27.50;94.50;;;;;;1940590;74;21075;-86
2021/10/05 00:14:35;;;;;;;18.32;14.28;;;27.50;95.10;;;;;;1939818;74;21102;-87
2021/10/05 00:17:06;;;;;;;22.27;14.43;;;27.60;94.50;;;;;;1939790;74;21067;-86
2021/10/05 00:19:37;;;;;;;19.98;14.63;;;27.60;95.10;;;;;;1940300;74;21576;-86
2021/10/05 00:22:08;;;;;;;18.95;13.20;;;27.60;94.60;;;;;;1922113;74;21094;-86
2021/10/05 00:24:39;;;;;;;19.40;13.60;;;27.60;94.50;;;;;;1906789;75;21047;-86
2021/10/05 00:27:10;;;;;;;19.32;13.20;;;27.70;94.40;;;;;;1907207;74;21067;-85
2021/10/05 00:29:41;;;;;;;15.40;12.25;;;27.70;94.30;;;;;;1905914;75;21071;-86
2021/10/05 00:32:12;;;;;;;19.62;13.15;;;27.70;94.10;;;;;;1906814;74;21068;-87
2021/10/05 00:34:43;;;;;;;15.03;12.13;;;27.80;94.30;;;;;;1908006;75;21534;-86
2021/10/05 00:37:14;;;;;;;17.75;12.20;;;27.80;94.10;;;;;;1906370;75;21514;-86
2021/10/05 00:39:45;;;;;;;17.85;12.50;;;27.90;94.10;;;;;;1906584;72;21113;-85
2021/10/05 00:42:16;;;;;;;15.15;11.33;;;27.90;93.90;;;;;;1907071;75;21051;-87
2021/10/05 00:44:50;;;;;;;14.33;11.95;;;28.00;93.90;;;;;;1905444;72;21121;-85
2021/10/05 00:47:21;;;;;;;18.60;12.82;;;28.00;93.70;;;;;;1907033;75;21138;-86
2021/10/05 00:49:53;;;;;;;14.98;11.22;;;28.10;93.70;;;;;;1907016;74;21156;-85
2021/10/05 00:52:23;;;;;;;15.03;10.68;;;28.10;93.60;;;;;;1907627;74;21168;-75
2021/10/05 00:54:55;;;;;;;15.25;10.10;;;28.20;93.40;;;;;;1906220;75;21522;-75
2021/10/05 00:57:27;;;;;;;14.55;10.82;;;28.30;93.30;;;;;;1904096;75;21192;-78
2021/10/05 00:59:58;;;;;;;16.25;10.70;;;28.30;93.20;;;;;;1906802;75;21475;-78
2021/10/05 01:02:29;;;;;;;14.50;9.88;;;28.40;92.80;;;;;;1906362;74;21129;-77
2021/10/05 01:05:00;;;;;;;14.90;10.55;;;28.40;92.70;;;;;;1887317;73;21169;-76
2021/10/05 01:07:32;;;;;;;12.53;9.98;;;28.50;92.40;;;;;;1939576;73;21583;-74
2021/10/05 01:10:03;;;;;;;12.55;9.58;;;28.50;92.10;;;;;;1937332;72;21212;-75
2021/10/05 01:12:35;;;;;;;13.70;8.90;;;28.60;92.20;;;;;;1950724;72;21060;-75
2021/10/05 01:15:06;;;;;;;17.48;10.50;;;28.60;91.80;;;;;;1949401;72;21081;-75
2021/10/05 01:17:39;;;;;;;11.50;8.48;;;28.70;92.00;;;;;;1937659;74;21129;-75
2021/10/05 01:20:12;;;;;;;13.75;9.23;;;28.70;91.60;;;;;;1917465;72;21121;-76
2021/10/05 01:22:43;;;;;;;11.63;8.85;;;28.80;91.50;;;;;;1952446;73;21600;-75
2021/10/05 01:25:16;;;;;;;11.53;8.75;;;28.80;91.30;;;;;;1953482;73;21185;-75
2021/10/05 01:27:52;;;;;;;11.08;9.05;;;28.80;91.20;;;;;;1905079;75;21122;-75
2021/10/05 01:30:24;;;;;;;13.43;8.93;;;28.90;91.00;;;;;;1952405;73;21523;-75
2021/10/05 01:32:57;;;;;;;12.43;8.05;;;29.00;90.70;;;;;;1951788;73;21690;-76
2021/10/05 01:35:28;;;;;;;12.20;8.75;;;29.00;90.50;;;;;;1951848;73;21127;-76
2021/10/05 01:38:02;;;;;;;12.80;8.40;;;29.00;90.60;;;;;;1951909;73;21134;-76
2021/10/05 01:40:32;;;;;;;10.82;7.87;;;29.10;90.50;;;;;;1965105;72;21488;-77
2021/10/05 01:43:08;;;;;;;12.05;9.40;;;29.10;90.20;;;;;;1956427;72;21116;-75
2021/10/05 01:45:40;;;;;;;12.65;8.43;;;29.10;90.40;;;;;;1933246;74;21143;-76
2021/10/05 01:48:10;;;;;;;12.03;7.85;;;29.20;90.20;;;;;;1915368;74;21156;-77
2021/10/05 01:50:41;;;;;;;11.85;8.55;;;29.30;90.20;;;;;;1904478;75;21541;-75
2021/10/05 01:53:13;;;;;;;13.83;8.65;;;29.30;90.10;;;;;;1914956;72;21161;-74
2021/10/05 01:55:47;;;;;;;11.88;8.23;;;29.30;90.10;;;;;;1921190;73;21709;-76
2021/10/05 01:58:19;;;;;;;14.90;8.53;;;29.40;89.80;;;;;;1951904;73;21129;-76
2021/10/05 02:00:54;;;;;;;12.90;7.50;;;29.40;89.70;;;;;;1951650;73;21542;-75
2021/10/05 02:03:27;;;;;;;10.98;8.50;;;29.40;88.60;;;;;;1951807;73;21065;-74
2021/10/05 02:05:58;;;;;;;12.25;7.75;;;29.50;88.40;;;;;;1925391;73;21177;-74
2021/10/05 02:08:29;;;;;;;9.83;7.78;;;29.60;88.50;;;;;;1930290;73;21127;-75
2021/10/05 02:11:01;;;;;;;9.88;7.60;;;29.60;87.90;;;;;;1953442;73;21115;-74
2021/10/05 02:13:31;;;;;;;9.55;7.65;;;29.70;88.10;;;;;;1953482;72;21142;-76
2021/10/05 02:16:03;;;;;;;10.72;8.13;;;29.70;88.60;;;;;;1885055;75;21099;-74
2021/10/05 02:18:38;;;;;;;13.58;7.97;;;29.70;88.20;;;;;;1937521;72;21140;-76
2021/10/05 02:21:16;;;;;;;10.18;7.70;;;29.80;88.30;;;;;;1946098;73;21111;-76
2021/10/05 02:26:16;;;;;;;8.75;7.30;;;29.90;88.40;;;;;;1905707;75;21622;-75
2021/10/05 02:28:58;;;;;;;11.30;7.78;;;30.00;87.30;;;;;;1906974;75;21209;-74
2021/10/05 02:31:22;;;;;;;11.00;7.15;;;30.00;86.80;;;;;;1925692;74;21183;-75
2021/10/05 02:33:54;;;;;;;11.22;7.20;;;30.10;86.50;;;;;;1927291;74;21129;-73
2021/10/05 02:36:26;;;;;;;10.80;7.42;;;30.20;86.30;;;;;;1921357;73;21109;-74
2021/10/05 02:38:59;;;;;;;11.38;7.90;;;30.30;86.30;;;;;;1945471;72;21135;-75
2021/10/05 02:41:30;;;;;;;10.93;8.05;;;30.40;86.30;;;;;;1909018;75;21613;-74
2021/10/05 02:44:01;;;;;;;10.00;7.10;;;30.50;85.90;;;;;;1910236;73;21130;-75
2021/10/05 02:46:31;;;;;;;10.23;7.20;;;30.50;85.30;;;;;;1910381;74;21515;-75
2021/10/05 02:49:03;;;;;;;9.23;6.03;;;30.60;85.80;;;;;;1909924;75;21234;-74
2021/10/05 02:51:34;;;;;;;8.63;6.85;;;30.70;84.20;;;;;;1917592;74;21402;-74
2021/10/05 02:54:05;;;;;;;9.70;7.35;;;30.80;85.10;;;;;;1945662;72;21812;-75
2021/10/05 02:56:36;;;;;;;8.53;6.45;;;30.90;84.50;;;;;;1968075;72;21065;-75
2021/10/05 02:59:07;;;;;;;9.00;6.83;;;31.10;83.60;;;;;;1932960;72;21163;-74
2021/10/05 03:01:38;;;;;;;8.33;6.50;;;31.20;84.10;;;;;;1931883;74;21049;-74
2021/10/05 03:04:10;;;;;;;8.95;6.60;;;31.40;83.60;;;;;;1933648;72;21084;-74
2021/10/05 03:06:42;;;;;;;8.20;6.50;;;31.50;83.00;;;;;;1945410;72;21064;-76
2021/10/05 03:09:16;;;;;;;10.18;6.30;;;31.50;82.70;;;;;;1944516;72;21120;-73
2021/10/05 03:11:58;;;;;;;10.03;6.58;;;31.60;81.70;;;;;;1975818;72;21120;-77
2021/10/05 03:14:31;;;;;;;10.60;6.42;;;31.70;82.00;;;;;;1919987;75;21565;-78
2021/10/05 03:17:02;;;;;;;7.03;5.65;;;31.90;81.60;;;;;;1979806;71;21099;-79
2021/10/05 03:19:33;;;;;;;10.45;5.78;;;32.00;81.10;;;;;;1977831;72;21111;-79
2021/10/05 03:22:04;;;;;;;10.10;5.95;;;32.00;79.90;;;;;;1979333;72;21099;-74
2021/10/05 03:24:35;;;;;;;9.95;5.55;;;32.10;80.90;;;;;;1977735;72;21565;-76
2021/10/05 03:27:06;;;;;;;7.12;5.35;;;32.10;80.30;;;;;;1979069;72;21188;-77
2021/10/05 03:29:38;;;;;;;9.20;5.60;;;32.20;78.40;;;;;;1965229;72;21070;-75
2021/10/05 03:32:09;;;;;;;6.97;5.53;;;32.20;79.40;;;;;;1942907;72;21206;-74
2021/10/05 03:34:41;;;;;;;7.65;5.37;;;32.20;79.70;;;;;;1949731;72;21181;-75
2021/10/05 03:37:12;;;;;;;7.40;5.10;;;32.30;79.20;;;;;;1953935;73;21071;-74
2021/10/05 03:39:44;;;;;;;10.10;5.25;;;32.40;77.80;;;;;;1937867;73;21056;-75
2021/10/05 03:42:19;;;;;;;8.18;5.17;;;32.50;78.10;;;;;;1971144;71;21097;-74
2021/10/05 03:44:49;;;;;;;6.42;4.65;;;32.60;77.20;;;;;;1921137;72;21173;-74
2021/10/05 03:47:23;;;;;;;7.60;5.33;;;32.70;77.20;;;;;;1934051;72;21597;-75
2021/10/05 03:49:54;;;;;;;7.30;5.08;;;32.70;77.10;;;;;;1928653;73;21087;-76
2021/10/05 03:52:25;;;;;;;8.18;4.37;;;32.80;77.30;;;;;;1918038;73;21609;-76
2021/10/05 03:54:56;;;;;;;5.97;4.03;;;32.80;75.10;;;;;;1936134;72;21088;-76
2021/10/05 03:57:28;;;;;;;5.28;3.00;;;32.90;74.40;;;;;;1956735;71;21078;-76
2021/10/05 04:00:02;;;;;;;4.45;3.17;;;32.90;73.70;;;;;;1926221;72;21310;-79
2021/10/05 04:02:33;;;;;;;5.58;4.03;;;33.00;74.70;;;;;;1921551;72;21132;-76
2021/10/05 04:05:05;;;;;;;6.17;3.55;;;33.00;73.40;;;;;;1928717;74;21512;-77
2021/10/05 04:07:36;;;;;;;11.70;3.60;;;33.00;74.10;;;;;;1931422;73;21562;-75
2021/10/05 04:10:08;;;;;;;6.35;3.42;;;33.10;73.00;;;;;;1947172;73;21701;-76
2021/10/05 04:12:38;;;;;;;4.75;3.17;;;33.20;73.20;;;;;;1938279;72;21175;-76
2021/10/05 04:15:09;;;;;;;9.70;3.60;;;33.20;72.10;;;;;;1924756;73;21607;-76
2021/10/05 04:17:40;;;;;;;5.10;2.83;;;33.30;71.50;;;;;;1930041;72;21138;-76
2021/10/05 04:20:12;;;;;;;5.28;2.80;;;33.40;73.60;;;;;;1940351;73;21671;-75
2021/10/05 04:22:43;;;;;;;4.80;2.87;;;33.40;72.10;;;;;;1928411;73;21144;-76
2021/10/05 04:25:14;;;;;;;5.20;3.67;;;33.40;71.50;;;;;;1924357;72;21119;-76
2021/10/05 04:27:47;;;;;;;5.33;3.52;;;33.40;71.30;;;;;;1947576;72;21605;-81
2021/10/05 04:30:18;;;;;;;6.37;3.47;;;33.40;71.60;;;;;;1927586;74;21719;-80
2021/10/05 04:32:49;;;;;;;10.30;3.30;;;33.40;71.40;;;;;;1948585;72;21110;-80
2021/10/05 04:35:22;;;;;;;6.30;4.05;;;33.40;71.80;;;;;;1947469;72;21123;-80
2021/10/05 04:37:53;;;;;;;6.65;3.40;;;33.40;72.00;;;;;;1938953;73;21651;-81
2021/10/05 04:40:25;;;;;;;6.20;3.98;;;33.40;71.50;;;;;;1956994;72;21127;-79
2021/10/05 04:42:55;;;;;;;5.40;3.50;;;33.40;71.30;;;;;;1915962;73;21060;-80
2021/10/05 04:45:26;;;;;;;5.92;4.08;;;33.40;71.50;;;;;;1912974;74;21108;-80
2021/10/05 04:47:58;;;;;;;4.30;3.42;;;33.40;71.30;;;;;;1936699;73;21104;-79
2021/10/05 04:50:32;;;;;;;4.75;3.60;;;33.40;71.00;;;;;;1952460;72;21542;-80
2021/10/05 04:53:03;;;;;;;6.85;4.00;;;33.50;71.30;;;;;;1939628;72;21697;-82
2021/10/05 04:55:37;;;;;;;6.47;3.40;;;33.40;71.30;;;;;;1913168;73;21077;-83
2021/10/05 04:58:08;;;;;;;10.13;3.42;;;33.30;71.70;;;;;;1934859;73;21696;-80
2021/10/05 05:00:43;;;;;;;7.72;3.65;;;33.20;71.70;;;;;;1922743;73;21224;-81
2021/10/05 05:03:15;;;;;;;5.50;3.70;;;33.20;72.10;;;;;;1941758;74;21671;-80
2021/10/05 05:05:46;;;;;;;6.35;3.50;;;33.20;72.10;;;;;;1946053;73;21071;-82
2021/10/05 05:08:16;;;;;;;7.55;3.80;;;33.10;72.60;;;;;;1950006;72;21613;-81
2021/10/05 05:10:48;;;;;;;7.10;3.47;;;33.10;72.70;;;;;;1938816;73;21621;-80
2021/10/05 05:13:21;;;;;;;5.95;3.25;;;33.20;72.00;;;;;;1924766;74;21132;-81
2021/10/05 05:15:55;;;;;;;4.92;3.52;;;33.20;72.40;;;;;;1944306;73;21108;-80
2021/10/05 05:18:29;;;;;;;7.28;3.72;;;33.30;72.40;;;;;;1919691;73;21161;-81
2021/10/05 05:21:00;;;;;;;6.03;3.45;;;33.30;72.00;;;;;;1944181;74;21139;-79
2021/10/05 05:23:31;;;;;;;6.83;3.37;;;33.40;72.70;;;;;;1934526;72;21100;-82
2021/10/05 05:26:02;;;;;;;5.37;3.52;;;33.40;71.90;;;;;;1937231;73;21060;-79
2021/10/05 05:28:33;;;;;;;8.05;3.70;;;33.30;72.50;;;;;;1938988;73;21567;-79
2021/10/05 05:31:04;;;;;;;5.67;3.50;;;33.20;73.00;;;;;;1936263;72;21126;-79
2021/10/05 05:33:34;;;;;;;5.03;3.17;;;33.20;72.60;;;;;;1939911;73;21096;-80
2021/10/05 05:36:05;;;;;;;6.22;3.08;;;33.30;72.70;;;;;;1938483;74;21100;-79
2021/10/05 05:38:36;;;;;;;5.47;3.75;;;33.30;71.90;;;;;;1973501;72;21174;-79
2021/10/05 05:41:07;;;;;;;5.12;3.12;;;33.20;72.10;;;;;;1918498;74;21564;-80
2021/10/05 05:43:44;;;;;;;6.22;3.08;;;33.20;72.70;;;;;;1953565;72;21538;-82
2021/10/05 05:46:17;;;;;;;7.67;3.95;;;33.20;72.40;;;;;;1915055;73;21204;-81
2021/10/05 05:48:49;;;;;;;7.58;3.87;;;33.30;72.10;;;;;;1944554;73;21626;-81
2021/10/05 05:51:17;;;;;;;4.80;3.22;;;33.40;71.80;;;;;;1893464;74;21120;-79
2021/10/05 05:53:47;;;;;;;10.82;4.10;;;33.40;71.30;;;;;;1966026;73;21149;-82
2021/10/05 05:56:18;;;;;;;5.55;3.50;;;33.40;71.50;;;;;;1964234;72;21115;-75
2021/10/05 05:58:52;;;;;;;6.45;3.50;;;33.40;71.30;;;;;;1949779;73;21222;-76
2021/10/05 06:01:24;;;;;;;6.17;3.80;;;33.30;71.30;;;;;;1914070;73;21201;-76
2021/10/05 06:03:55;;;;;;;4.97;3.00;;;33.20;72.20;;;;;;1927427;72;21158;-76
2021/10/05 06:06:29;;;;;;;6.70;3.40;;;33.10;72.00;;;;;;1951401;72;21577;-77
2021/10/05 06:09:03;;;;;;;5.22;3.08;;;33.00;72.80;;;;;;1932028;73;21065;-76
2021/10/05 06:11:38;;;;;;;6.45;3.47;;;32.90;74.20;;;;;;1912426;74;21166;-77
2021/10/05 06:14:36;;;;;;;6.85;3.35;;;32.90;73.40;;;;;;1894983;75;21711;-77
2021/10/05 06:16:57;;;;;;;6.92;2.77;;;32.90;72.80;;;;;;1885177;73;21132;-75
2021/10/05 06:19:39;;;;;;;6.80;3.35;;;33.10;72.20;;;;;;1914761;74;21139;-77
2021/10/05 06:22:10;;;;;;;4.90;3.10;;;33.20;72.20;;;;;;1877715;73;21576;-76
2021/10/05 06:24:42;;;;;;;10.28;3.30;;;33.30;71.40;;;;;;1927425;72;21114;-75
2021/10/05 06:27:12;;;;;;;7.45;3.22;;;33.40;71.90;;;;;;1950198;73;21045;-76
2021/10/05 06:29:43;;;;;;;4.53;2.77;;;33.50;71.40;;;;;;1936241;73;21134;-75
2021/10/05 06:32:15;;;;;;;5.75;3.83;;;33.60;70.60;;;;;;1940549;72;21154;-76
2021/10/05 06:34:48;;;;;;;5.00;2.87;;;33.60;69.60;;;;;;1939031;72;21165;-76
2021/10/05 06:37:19;;;;;;;5.15;3.42;;;33.70;70.20;;;;;;1947627;72;22301;-75
2021/10/05 06:39:50;;;;;;;7.95;3.52;;;33.80;69.50;;;;;;1931434;72;21144;-74
2021/10/05 06:42:21;;;;;;;7.83;2.80;;;33.80;69.10;;;;;;1921510;72;21193;-75
2021/10/05 06:44:52;;;;;;;4.42;2.80;;;33.90;68.70;;;;;;1942350;73;21146;-76
2021/10/05 06:47:24;;;;;;;5.75;2.80;;;33.90;68.90;;;;;;1892834;75;21148;-77
2021/10/05 06:49:57;;;;;;;5.72;3.17;;;33.90;68.60;;;;;;1911522;75;21130;-74
2021/10/05 06:52:28;;;;;;;3.77;2.70;;;33.80;68.10;;;;;;1911942;72;21580;-77
2021/10/05 06:54:59;;;;;;;4.92;3.27;;;33.90;69.00;;;;;;1926348;72;21558;-75
2021/10/05 06:57:29;;;;;;;6.58;3.33;;;33.80;68.80;;;;;;1951044;73;21092;-76
2021/10/05 07:00:00;;;;;;;7.33;4.20;;;33.80;69.50;;;;;;1939183;74;21549;-75
2021/10/05 07:02:31;;;;;;;5.87;3.17;;;33.70;69.70;;;;;;1939296;73;21132;-75
2021/10/05 07:05:02;;;;;;;5.33;3.20;;;33.70;69.90;;;;;;1951331;73;21543;-74
2021/10/05 07:07:33;;;;;;;5.40;2.98;;;33.70;69.80;;;;;;1939482;74;21159;-74
2021/10/05 07:10:04;;;;;;;6.22;3.30;;;33.70;69.30;;;;;;1950682;73;21535;-75
2021/10/05 07:12:35;;;;;;;5.87;3.02;;;33.70;69.20;;;;;;1939387;74;21108;-74
2021/10/05 07:15:07;;;;;;;4.62;2.47;;;33.60;69.50;;;;;;1945623;73;21141;-75
2021/10/05 07:17:39;;;;;;;5.60;2.45;;;33.60;69.60;;;;;;1953733;72;21182;-76
2021/10/05 07:20:12;;;;;;;4.05;3.12;;;33.60;69.20;;;;;;1925496;73;21594;-75
2021/10/05 07:22:43;;;;;;;5.47;3.10;;;33.60;69.10;;;;;;1932471;73;21531;-75
2021/10/05 07:25:14;;;;;;;6.25;2.92;;;33.60;70.00;;;;;;1949187;73;21117;-76
2021/10/05 07:27:50;;;;;;;7.80;3.22;;;33.50;68.90;;;;;;1924703;74;21151;-76
2021/10/05 07:30:23;;;;;;;6.60;3.05;;;33.40;69.70;;;;;;1908170;74;21899;-76
2021/10/05 07:32:54;;;;;;;4.53;3.02;;;33.30;69.50;;;;;;1976016;72;21083;-75
2021/10/05 07:35:25;;;;;;;5.97;3.80;;;33.30;69.70;;;;;;1945951;72;21159;-75
2021/10/05 07:37:57;;;;;;;4.58;2.60;;;33.40;70.10;;;;;;1946526;72;21155;-76
2021/10/05 07:40:29;;;;;;;4.28;2.92;;;33.40;69.40;;;;;;1934279;72;21129;-75
2021/10/05 07:43:01;;;;;;;6.47;3.05;;;33.40;69.10;;;;;;1942395;73;21177;-75
2021/10/05 07:45:33;;;;;;;5.95;3.70;;;33.30;70.00;;;;;;1948906;73;21056;-75
2021/10/05 07:48:07;;;;;;;6.05;3.00;;;33.30;69.00;;;;;;1937382;74;21146;-75
2021/10/05 07:50:38;;;;;;;5.37;3.27;;;33.40;69.50;;;;;;1943990;73;21200;-75
2021/10/05 07:53:08;;;;;;;4.30;3.02;;;33.30;69.50;;;;;;1950667;73;21137;-76
2021/10/05 07:55:39;;;;;;;5.10;2.75;;;33.30;69.40;;;;;;1950962;73;21551;-75
2021/10/05 07:58:10;;;;;;;3.58;2.90;;;33.40;69.30;;;;;;1953401;72;21544;-76
2021/10/05 08:00:41;;;;;;;5.80;3.10;;;33.40;69.10;;;;;;1968033;72;21091;-76
2021/10/05 08:03:12;;;;;;;6.35;3.40;;;33.30;68.80;;;;;;1942276;74;21642;-75
2021/10/05 08:05:42;;;;;;;4.47;3.40;;;33.30;69.20;;;;;;1960949;72;21578;-76
2021/10/05 08:08:32;;;;;;;6.87;3.47;;;33.30;69.30;;;;;;1952216;72;21885;-74
2021/10/05 08:11:04;;;;;;;5.85;3.85;;;33.30;69.20;;;;;;1867859;76;21099;-75
2021/10/05 08:13:34;;;;;;;5.53;3.60;;;33.30;69.30;;;;;;1864910;74;21120;-75
2021/10/05 08:16:05;;;;;;;5.55;3.60;;;33.30;69.20;;;;;;1879311;76;21191;-74
2021/10/05 08:18:40;;;;;;;6.25;3.85;;;33.30;69.80;;;;;;1888556;75;21109;-76
2021/10/05 08:21:16;;;;;;;6.45;3.72;;;33.30;70.10;;;;;;1890838;76;21129;-76
2021/10/05 08:23:45;;;;;;;5.25;3.22;;;33.40;69.70;;;;;;1876992;75;21183;-74
2021/10/05 08:26:15;;;;;;;5.55;3.85;;;33.50;69.80;;;;;;1891268;76;21105;-75
2021/10/05 08:28:50;;;;;;;5.17;3.60;;;33.50;69.80;;;;;;1891569;76;21601;-75
2021/10/05 08:31:21;;;;;;;5.42;3.87;;;33.50;70.20;;;;;;1888704;76;21172;-75
2021/10/05 08:33:53;;;;;;;5.30;3.12;;;33.50;71.40;;;;;;1871234;74;21176;-74
2021/10/05 08:36:23;;;;;;;6.40;3.47;;;33.40;69.80;;;;;;1854170;76;21152;-74
2021/10/05 08:38:54;;;;;;;5.20;3.98;;;33.40;70.00;;;;;;1864423;75;21627;-75
2021/10/05 08:41:25;;;;;;;5.55;3.60;;;33.40;69.50;;;;;;1853981;75;21184;-75
2021/10/05 08:43:59;;;;;;;4.47;3.35;;;33.40;69.30;;;;;;1864633;76;21129;-74
2021/10/05 08:46:29;;;;;;;9.13;3.67;;;33.40;69.30;;;;;;1876190;75;21640;-75
2021/10/05 08:49:00;;;;;;;5.03;3.30;;;33.50;69.10;;;;;;1911337;73;21193;-75
2021/10/05 08:51:31;;;;;;;6.17;2.98;;;33.50;68.80;;;;;;1909454;73;21228;-74
2021/10/05 08:54:01;;;;;;;7.30;2.83;;;33.50;68.50;;;;;;1894214;73;21111;-74
2021/10/05 08:56:32;;;;;;;3.98;2.60;;;33.50;68.00;;;;;;1914769;73;21127;-75
2021/10/05 08:59:03;;;;;;;3.77;2.92;;;33.50;67.40;;;;;;1914860;73;21189;-75
2021/10/05 09:01:35;;;;;;;4.97;3.00;;;33.50;68.30;;;;;;1881264;75;21127;-75
2021/10/05 09:04:08;;;;;;;5.42;3.35;;;33.40;68.90;;;;;;1913023;74;21560;-74
2021/10/05 09:06:41;;;;;;;5.83;3.80;;;33.40;69.20;;;;;;1914077;73;21493;-76
2021/10/05 09:09:11;;;;;;;6.97;3.42;;;33.30;69.30;;;;;;1897670;73;21277;-76
2021/10/05 09:11:47;;;;;;;5.20;3.40;;;33.30;69.60;;;;;;1912716;74;21178;-76
2021/10/05 09:14:16;;;;;;;5.60;3.33;;;33.20;71.10;;;;;;1911498;74;21741;-75
2021/10/05 09:16:48;;;;;;;6.37;3.62;;;33.10;71.00;;;;;;1914137;73;21674;-76
2021/10/05 09:19:19;;;;;;;4.65;3.47;;;33.00;72.90;;;;;;1911364;73;21668;-76
2021/10/05 09:21:55;;;;;;;7.87;3.77;;;32.90;74.40;;;;;;1911946;73;21103;-76
2021/10/05 09:24:32;;;;;;;6.17;4.05;;;32.80;73.40;;;;;;1913374;73;21169;-76
2021/10/05 09:26:59;;;;;;;6.12;3.77;;;32.70;72.80;;;;;;1910949;75;21735;-76
2021/10/05 09:29:33;;;;;;;7.65;4.12;;;32.60;72.70;;;;;;1912565;74;21890;-75
2021/10/05 09:32:07;;;;;;;5.90;4.37;;;32.60;73.20;;;;;;1913157;75;21714;-79
2021/10/05 09:34:39;;;;;;;7.92;3.98;;;32.40;73.40;;;;;;1913643;74;21572;-76
2021/10/05 09:37:13;;;;;;;6.75;4.37;;;32.40;73.80;;;;;;1917484;73;21193;-76
2021/10/05 09:39:46;;;;;;;7.40;4.40;;;32.40;73.80;;;;;;1914694;73;21163;-76
2021/10/05 09:42:20;;;;;;;7.25;3.92;;;32.40;74.80;;;;;;1915238;73;21624;-76
2021/10/05 09:44:53;;;;;;;9.78;4.72;;;32.40;74.10;;;;;;1933947;73;21077;-79
2021/10/05 09:47:26;;;;;;;7.30;4.35;;;32.30;75.90;;;;;;1876053;76;21088;-75
2021/10/05 09:49:58;;;;;;;12.28;5.50;;;32.30;77.30;;;;;;1862866;76;21676;-75
2021/10/05 09:52:31;;;;;;;11.38;5.20;;;32.20;77.80;;;;;;1859496;77;21105;-78
2021/10/05 09:55:05;;;;;;;;;;;32.10;78.70;;;;;;1912883;75;21512;-77
2021/10/05 09:57:36;;;;;;;10.15;5.20;;;32.00;77.30;;;;;;1915061;75;20157;-77
2021/10/05 10:00:09;;;;;;;7.87;5.00;;;31.90;79.60;;;;;;1865648;77;21598;-75
2021/10/05 10:02:41;;;;;;;7.70;4.87;;;31.80;80.00;;;;;;1865391;77;21089;-76
2021/10/05 10:05:15;;;;;;;8.55;4.90;;;31.70;81.40;;;;;;1916367;74;21151;-75
2021/10/05 10:07:48;;;;;;;9.48;5.83;;;31.60;80.30;;;;;;1857863;76;21115;-76
2021/10/05 10:10:22;;;;;;;11.05;5.70;;;31.60;81.70;;;;;;1862488;77;21146;-75
2021/10/05 10:12:55;;;;;;;12.65;6.42;;;31.50;81.80;;;;;;1865275;77;21231;-75
2021/10/05 10:15:30;;;;;;;8.43;5.47;;;31.40;81.70;;;;;;1865061;77;21139;-77
2021/10/05 10:18:04;;;;;;;9.03;5.12;;;31.40;81.90;;;;;;1865536;77;21541;-75
2021/10/05 10:20:39;;;;;;;11.68;6.90;;;31.40;82.20;;;;;;1861030;77;21548;-76
2021/10/05 10:23:13;;;;;;;11.18;5.87;;;31.30;81.90;;;;;;1865285;76;21599;-74
2021/10/05 10:25:49;;;;;;;9.65;6.28;;;31.30;82.30;;;;;;1851396;77;21520;-75
2021/10/05 10:28:20;;;;;;;11.12;5.37;;;31.30;82.30;;;;;;1877331;76;21544;-75
2021/10/05 10:30:55;;;;;;;11.05;6.25;;;31.30;82.70;;;;;;1814903;77;21196;-74
2021/10/05 10:33:28;;;;;;;11.40;6.30;;;31.30;83.00;;;;;;1813225;77;21597;-75
2021/10/05 10:36:00;;;;;;;10.60;5.62;;;31.30;82.90;;;;;;1866243;74;21206;-74
2021/10/05 10:38:35;;;;;;;9.78;5.95;;;31.20;82.80;;;;;;1892649;76;21139;-81
2021/10/05 10:41:07;;;;;;;12.98;6.67;;;31.20;83.00;;;;;;1893007;76;21141;-81
2021/10/05 10:43:38;;;;;;;11.93;6.05;;;31.20;83.50;;;;;;1892404;75;21300;-81
2021/10/05 10:46:08;;;;;;;10.88;5.40;;;31.10;83.40;;;;;;1878135;76;21545;-81
2021/10/05 10:48:39;;;;;;;10.72;6.42;;;31.10;83.50;;;;;;1873972;75;21096;-81
2021/10/05 10:51:13;;;;;;;10.23;5.83;;;31.00;83.40;;;;;;1871507;76;21619;-81
2021/10/05 10:53:46;;;;;;;11.75;5.90;;;31.00;83.40;;;;;;1838418;75;21185;-81
2021/10/05 10:56:18;;;;;;;10.80;5.83;;;31.00;83.70;;;;;;1838329;77;21104;-80
2021/10/05 10:58:50;;;;;;;10.03;6.30;;;31.00;83.80;;;;;;1888915;74;21486;-80
2021/10/05 11:01:21;;;;;;;11.43;5.65;;;30.90;84.30;;;;;;1900760;75;21606;-80
2021/10/05 11:03:53;;;;;;;13.85;6.17;;;30.90;84.20;;;;;;1870444;76;21552;-80
2021/10/05 11:06:26;;;;;;;9.80;5.42;;;30.90;84.30;;;;;;1895140;75;21086;-80
2021/10/05 11:09:00;;;;;;;8.33;6.05;;;30.80;84.80;;;;;;1910549;75;21220;-80
2021/10/05 11:11:34;;;;;;;11.40;6.45;;;30.80;84.80;;;;;;1912585;74;21155;-80
2021/10/05 11:14:07;;;;;;;9.68;6.08;;;30.80;85.50;;;;;;1866019;75;21543;-80
2021/10/05 11:16:40;;;;;;;10.60;6.17;;;30.80;85.50;;;;;;1829948;77;21164;-80
2021/10/05 11:19:12;;;;;;;9.85;6.28;;;30.80;85.40;;;;;;1918122;74;21092;-81
2021/10/05 11:21:45;;;;;;;7.67;5.85;;;30.80;85.50;;;;;;1907799;75;21105;-81
2021/10/05 11:24:18;;;;;;;12.63;7.60;;;30.80;85.40;;;;;;1911921;75;22049;-81
2021/10/05 11:26:51;;;;;;;14.55;7.85;;;30.80;85.50;;;;;;1874180;74;21097;-82
2021/10/05 11:29:25;;;;;;;13.25;7.97;;;30.80;85.40;;;;;;1907624;75;21151;-81
2021/10/05 11:31:58;;;;;;;13.93;8.63;;;30.80;85.30;;;;;;1906944;74;21066;-80
2021/10/05 11:34:30;;;;;;;13.83;8.38;;;30.80;85.40;;;;;;1910702;74;21098;-81
2021/10/05 11:37:02;;;;;;;14.58;10.13;;;30.80;85.70;;;;;;1861631;76;21109;-80
2021/10/05 11:39:35;;;;;;;14.95;9.65;;;30.80;85.70;;;;;;1826444;77;21158;-80
2021/10/05 11:42:13;;;;;;;12.40;9.53;;;30.80;86.00;;;;;;1871437;76;21228;-82
2021/10/05 11:44:49;;;;;;;12.43;9.63;;;30.70;86.20;;;;;;1906805;75;21147;-81
2021/10/05 11:47:23;;;;;;;13.70;9.33;;;30.70;86.30;;;;;;1905900;75;21293;-81
2021/10/05 11:50:00;;;;;;;16.62;9.25;;;30.80;86.20;;;;;;1863188;76;21595;-81
2021/10/05 11:52:31;;;;;;;12.10;8.73;;;30.80;86.40;;;;;;1868168;75;21629;-83
2021/10/05 11:55:04;;;;;;;12.80;8.40;;;30.80;86.70;;;;;;1912005;74;21097;-83
2021/10/05 11:57:43;;;;;;;12.58;8.23;;;30.70;86.90;;;;;;1845611;76;21183;-81
2021/10/05 12:00:13;;;;;;;18.90;8.70;;;30.70;86.70;;;;;;1857511;76;21074;-81
2021/10/05 12:02:44;;;;;;;14.00;8.88;;;30.80;87.20;;;;;;1866034;76;21100;-81
2021/10/05 12:05:17;;;;;;;12.35;8.75;;;30.80;87.60;;;;;;1909911;75;21101;-82
2021/10/05 12:07:48;;;;;;;16.02;9.40;;;30.70;87.60;;;;;;1910714;74;21561;-81
2021/10/05 12:10:21;;;;;;;16.02;10.45;;;30.70;87.80;;;;;;1864997;76;21139;-81
2021/10/05 12:12:52;;;;;;;16.32;9.53;;;30.70;87.90;;;;;;1864211;75;21609;-80
2021/10/05 12:15:24;;;;;;;13.32;8.78;;;30.60;87.60;;;;;;1879452;76;21540;-80
2021/10/05 12:18:00;;;;;;;14.13;9.23;;;30.60;87.90;;;;;;1877587;74;21112;-80
2021/10/05 12:20:32;;;;;;;15.50;10.82;;;30.60;88.30;;;;;;1877129;74;21120;-81
2021/10/05 12:23:06;;;;;;;15.88;10.05;;;30.60;88.40;;;;;;1878074;76;21592;-83
2021/10/05 12:25:41;;;;;;;19.23;12.07;;;30.50;88.50;;;;;;1874606;74;21179;-80
2021/10/05 12:28:13;;;;;;;15.80;10.28;;;30.50;88.70;;;;;;1878455;76;21076;-80
2021/10/05 12:30:50;;;;;;;15.88;10.50;;;30.50;89.30;;;;;;1846787;76;21662;-80
2021/10/05 12:33:21;;;;;;;16.42;12.15;;;30.50;89.20;;;;;;1878314;76;21079;-80
2021/10/05 12:36:12;;;;;;;;;;;;;;;;;;;;;
2021/10/05 12:38:40;;;;;;;20.17;11.55;;;30.40;89.50;;;;;;1868934;76;21173;-81
2021/10/05 12:41:15;;;;;;;21.70;11.53;;;30.40;90.00;;;;;;1878514;76;21126;-81
2021/10/05 12:43:49;;;;;;;18.27;11.20;;;30.40;90.20;;;;;;1839050;76;21174;-82
2021/10/05 12:46:40;;;;;;;17.12;11.40;;;30.30;90.20;;;;;;1878824;76;21129;-85
2021/10/05 12:49:21;;;;;;;16.45;11.18;;;30.30;90.30;;;;;;1838372;77;21552;-82
2021/10/05 12:51:56;;;;;;;16.17;12.55;;;30.30;90.30;;;;;;1877185;75;21088;-81
2021/10/05 12:54:37;;;;;;;17.65;11.28;;;30.30;90.40;;;;;;1830982;76;21210;-82
2021/10/05 12:57:13;;;;;;;17.30;10.85;;;30.30;90.60;;;;;;1905192;73;21163;-82
2021/10/05 12:59:50;;;;;;;16.73;11.48;;;30.30;90.60;;;;;;1904525;73;21126;-81
2021/10/05 13:02:34;;;;;;;17.67;10.85;;;30.30;90.60;;;;;;1879643;74;21157;-81
2021/10/05 13:05:13;;;;;;;19.10;10.88;;;30.30;90.60;;;;;;1897412;73;21516;-82
2021/10/05 13:07:45;;;;;;;18.40;10.40;;;30.30;90.70;;;;;;1863119;75;21174;-81
2021/10/05 13:10:17;;;;;;;20.77;12.43;;;30.20;90.80;;;;;;1857946;76;21079;-81
2021/10/05 13:12:49;;;;;;;21.15;14.60;;;30.30;91.10;;;;;;1855391;75;21164;-81